Capitol Logistics 330


CYYZ
Lester B. Pearson International Airport
Toronto, CA
KIAD
Washington Dulles International Airport
Dulles, US

Activity Log

Date Flight Route Aircraft Duration
11/05/2019 CPX330 RIGUS2 PSB MAPEL2 B763 1h 08m
06/26/2019 CPX330 RIGUS2 PSB MAPEL2 B763 0h 04m

Route Details

Aircraft Information
Primary: Boeing 767-300BDSF
Backup: Not Available
Route Data
Distance: 301nm
Sched. Duration: 1h 24m
Avg. Duration: 0h 56m (-68m)
Times Flown: 2
Recm'd Route: RIGUS2 PSB MAPEL2
Planned Altitude: 35,000ft
Origin Wx: CYYZ 211000Z 17010KT 15SM SKC M10/M14 A3046 RMK SLP327
Dest. Wx: KIAD 210952Z 34011KT 10SM CLR M05/M14 A3048 RMK AO2 SLP326 T10501144
Notes:

Financial History
Total Freight: 151,276lbs
Average Load: 75,638lbs/flt
Fuel Used: 81,009lbs
Avg. Fuel Used: 40,505lbs/flt
Fuel Expense: $50,226
Avg. Fuel Expense: $25,113
Avg. Fuel Cost: $0.62/lbs
Total Gross Income: $195,146
Pilot Pay: $218
Total Expenses: $21,180
Total Revenue: $123,567
Average Revenue: $97,573.02